createdAt,value
2018-03-24T00:02:24.325Z,93.30
2018-03-24T00:04:52.551Z,93.40
2018-03-24T00:07:20.035Z,93.40
2018-03-24T00:09:47.501Z,93.50
2018-03-24T00:12:15.043Z,93.50
2018-03-24T00:14:42.530Z,93.70
2018-03-24T00:17:10.802Z,93.80
2018-03-24T00:19:39.033Z,93.90
2018-03-24T00:22:06.585Z,93.90
2018-03-24T00:24:34.077Z,94.10
2018-03-24T00:27:01.550Z,94.20
2018-03-24T00:29:29.006Z,94.40
2018-03-24T00:31:57.270Z,94.60
2018-03-24T00:34:24.763Z,94.60
2018-03-24T00:36:52.251Z,94.70
2018-03-24T00:39:19.747Z,94.80
2018-03-24T00:41:47.238Z,95.00
2018-03-24T00:44:15.474Z,95.30
2018-03-24T00:46:42.968Z,95.30
2018-03-24T00:49:11.190Z,95.50
2018-03-24T00:51:38.685Z,95.50
2018-03-24T00:54:06.157Z,95.60
2018-03-24T00:56:35.318Z,96.00
2018-03-24T00:59:03.133Z,95.90
2018-03-24T01:01:30.710Z,96.20
2018-03-24T01:03:58.228Z,96.50
2018-03-24T01:06:25.706Z,96.80
2018-03-24T01:08:53.190Z,96.80
2018-03-24T01:11:20.643Z,96.80
2018-03-24T01:13:48.151Z,96.90
2018-03-24T01:16:15.658Z,96.90
2018-03-24T01:18:43.126Z,97.00
2018-03-24T01:21:10.572Z,96.80
2018-03-24T01:23:38.065Z,96.80
2018-03-24T01:26:05.523Z,96.80
2018-03-24T01:28:33.058Z,96.80
2018-03-24T01:31:00.525Z,96.90
2018-03-24T01:33:28.119Z,97.00
2018-03-24T01:35:56.346Z,97.00
2018-03-24T01:38:24.100Z,97.00
2018-03-24T01:40:51.564Z,97.30
2018-03-24T01:43:19.051Z,97.40
2018-03-24T01:45:46.514Z,97.40
2018-03-24T01:48:13.997Z,97.40
2018-03-24T01:50:42.253Z,97.40
2018-03-24T01:53:09.826Z,97.40
2018-03-24T01:55:38.061Z,97.80
2018-03-24T01:58:05.545Z,97.50
2018-03-24T02:00:33.012Z,97.40
2018-03-24T02:03:00.581Z,97.30
2018-03-24T02:05:28.118Z,97.30
2018-03-24T02:07:55.614Z,97.30
2018-03-24T02:10:23.083Z,97.30
2018-03-24T02:12:50.594Z,97.40
2018-03-24T02:15:18.071Z,97.70
2018-03-24T02:17:46.325Z,97.60
2018-03-24T02:20:16.722Z,97.60
2018-03-24T02:22:44.214Z,97.70
2018-03-24T02:25:11.713Z,97.80
2018-03-24T02:27:39.187Z,97.90
2018-03-24T02:30:06.714Z,97.90
2018-03-24T02:32:34.937Z,98.10
2018-03-24T02:35:02.406Z,98.10
2018-03-24T02:37:29.925Z,98.00
2018-03-24T02:39:57.427Z,98.00
2018-03-24T02:42:24.906Z,98.00
2018-03-24T02:44:52.396Z,98.10
2018-03-24T02:47:19.859Z,98.20
2018-03-24T02:49:47.340Z,98.30
2018-03-24T02:52:14.807Z,98.20
2018-03-24T02:54:42.394Z,98.40
2018-03-24T02:57:09.879Z,98.40
2018-03-24T02:59:38.130Z,98.60
2018-03-24T03:02:05.602Z,98.50
2018-03-24T03:04:33.869Z,98.80
2018-03-24T03:07:02.107Z,98.90
2018-03-24T03:09:29.649Z,98.80
2018-03-24T03:11:57.139Z,98.90
2018-03-24T03:14:24.695Z,98.80
2018-03-24T03:16:52.195Z,98.80
2018-03-24T03:19:20.421Z,99.30
2018-03-24T03:21:52.610Z,99.30
2018-03-24T03:24:20.093Z,99.80
2018-03-24T03:26:48.347Z,99.80
2018-03-24T03:29:15.833Z,99.80
2018-03-24T03:32:00.890Z,99.80
2018-03-24T03:34:29.132Z,99.80
2018-03-24T03:36:56.635Z,99.80
2018-03-24T03:39:24.865Z,99.90
2018-03-24T03:41:52.465Z,99.90
2018-03-24T03:44:20.702Z,99.80
2018-03-24T03:46:48.194Z,99.80
2018-03-24T03:49:16.417Z,99.70
2018-03-24T03:51:43.934Z,99.90
2018-03-24T03:54:12.150Z,99.70
2018-03-24T03:56:39.650Z,99.70
2018-03-24T03:59:07.138Z,99.90
2018-03-24T04:01:34.717Z,99.90
2018-03-24T04:04:02.207Z,99.90
2018-03-24T04:06:29.683Z,99.90
2018-03-24T04:08:57.161Z,99.90
2018-03-24T04:11:25.397Z,99.90
2018-03-24T04:13:52.884Z,99.90
2018-03-24T04:16:21.119Z,99.90
2018-03-24T04:18:48.615Z,99.90
2018-03-24T04:21:16.867Z,99.90
2018-03-24T04:23:44.365Z,99.90
2018-03-24T04:26:12.610Z,99.90
2018-03-24T04:28:40.106Z,99.90
2018-03-24T04:31:07.594Z,99.90
2018-03-24T04:33:35.090Z,99.90
2018-03-24T04:36:02.558Z,99.90
2018-03-24T04:38:30.798Z,99.90
2018-03-24T04:40:58.301Z,99.90
2018-03-24T04:43:26.835Z,99.90
2018-03-24T04:45:54.300Z,99.90
2018-03-24T04:48:21.785Z,99.90
2018-03-24T04:50:49.264Z,99.90
2018-03-24T04:53:17.498Z,99.90
2018-03-24T04:55:45.062Z,99.90
2018-03-24T04:58:12.565Z,99.90
2018-03-24T05:00:40.030Z,99.90
2018-03-24T05:03:07.501Z,99.90
2018-03-24T05:05:35.006Z,99.90
2018-03-24T05:08:02.465Z,99.90
2018-03-24T05:10:29.961Z,99.90
2018-03-24T05:12:57.430Z,99.90
2018-03-24T05:15:24.948Z,99.90
2018-03-24T05:17:52.496Z,99.90
2018-03-24T05:20:19.979Z,99.90
2018-03-24T05:22:48.222Z,99.90
2018-03-24T05:25:15.777Z,99.90
2018-03-24T05:27:44.034Z,99.90
2018-03-24T05:30:11.503Z,99.90
2018-03-24T05:32:38.977Z,99.90
2018-03-24T05:35:06.463Z,99.90
2018-03-24T05:37:34.711Z,99.90
2018-03-24T05:40:02.223Z,99.90
2018-03-24T05:42:29.680Z,99.90
2018-03-24T05:44:57.190Z,99.90
2018-03-24T05:47:24.659Z,99.90
2018-03-24T05:49:52.146Z,99.90
2018-03-24T05:52:19.606Z,99.90
2018-03-24T05:54:47.117Z,99.90
2018-03-24T05:57:14.634Z,99.90
2018-03-24T05:59:42.138Z,99.90
2018-03-24T06:02:09.602Z,99.90
2018-03-24T06:04:37.066Z,99.90
2018-03-24T06:07:05.409Z,99.60
2018-03-24T06:09:32.934Z,99.60
2018-03-24T06:12:00.416Z,99.60
2018-03-24T06:14:27.882Z,99.60
2018-03-24T06:16:55.458Z,99.60
2018-03-24T06:19:22.925Z,99.70
2018-03-24T06:21:50.431Z,99.70
2018-03-24T06:24:17.890Z,99.70
2018-03-24T06:26:45.408Z,99.90
2018-03-24T06:29:13.651Z,99.90
2018-03-24T06:34:36.256Z,99.90
2018-03-24T06:37:04.681Z,99.90
2018-03-24T06:39:32.129Z,99.90
2018-03-24T06:41:59.606Z,99.90
2018-03-24T06:44:27.094Z,99.70
2018-03-24T06:46:54.574Z,99.60
2018-03-24T06:49:22.055Z,99.40
2018-03-24T06:51:49.528Z,99.20
2018-03-24T06:54:17.006Z,98.70
2018-03-24T06:56:44.458Z,98.60
2018-03-24T06:59:11.950Z,98.60
2018-03-24T07:01:40.190Z,98.30
2018-03-24T07:04:07.681Z,98.30
2018-03-24T07:06:35.913Z,98.00
2018-03-24T07:09:03.411Z,98.00
2018-03-24T07:11:30.874Z,98.10
2018-03-24T07:13:59.126Z,97.60
2018-03-24T07:16:26.588Z,97.60
2018-03-24T07:18:54.093Z,97.10
2018-03-24T07:21:21.565Z,96.30
2018-03-24T07:23:49.028Z,96.20
2018-03-24T07:26:16.548Z,96.20
2018-03-24T07:28:44.786Z,95.90
2018-03-24T07:31:12.256Z,95.90
2018-03-24T07:33:39.735Z,96.10
2018-03-24T07:36:07.989Z,96.00
2018-03-24T07:38:35.456Z,96.00
2018-03-24T07:41:02.938Z,95.80
2018-03-24T07:43:31.165Z,95.60
2018-03-24T07:45:58.668Z,95.60
2018-03-24T07:48:26.935Z,95.70
2018-03-24T07:50:55.179Z,95.30
2018-03-24T07:53:22.689Z,95.30
2018-03-24T07:55:50.155Z,94.90
2018-03-24T07:58:17.651Z,95.10
2018-03-24T08:00:45.151Z,94.70
2018-03-24T08:03:13.433Z,94.30
2018-03-24T08:05:41.709Z,94.10
2018-03-24T08:08:09.955Z,94.10
2018-03-24T08:10:37.439Z,94.10
2018-03-24T08:13:05.713Z,94.00
2018-03-24T08:15:33.954Z,94.00
2018-03-24T08:18:01.415Z,94.30
2018-03-24T08:20:28.931Z,93.70
2018-03-24T08:22:56.399Z,93.60
2018-03-24T08:25:23.891Z,93.70
2018-03-24T08:27:51.346Z,93.70
2018-03-24T08:30:18.852Z,93.40
2018-03-24T08:32:46.350Z,93.50
2018-03-24T08:35:13.855Z,93.10
2018-03-24T08:37:41.390Z,92.80
2018-03-24T08:40:08.840Z,92.10
2018-03-24T08:42:36.326Z,92.20
2018-03-24T08:45:04.587Z,91.70
2018-03-24T08:47:32.083Z,91.60
2018-03-24T08:49:59.544Z,91.70
2018-03-24T08:52:27.150Z,91.50
2018-03-24T08:54:54.656Z,91.10
2018-03-24T08:57:22.151Z,91.50
2018-03-24T08:59:49.649Z,92.00
2018-03-24T09:02:17.934Z,92.20
2018-03-24T09:04:46.187Z,92.30
2018-03-24T09:07:13.704Z,92.30
2018-03-24T09:09:41.184Z,92.00
2018-03-24T09:12:08.751Z,90.80
2018-03-24T09:14:36.223Z,90.10
2018-03-24T09:17:03.715Z,88.90
2018-03-24T09:19:31.244Z,88.80
2018-03-24T09:21:58.760Z,88.70
2018-03-24T09:24:26.285Z,88.00
2018-03-24T09:26:53.758Z,86.30
2018-03-24T09:29:21.229Z,85.40
2018-03-24T09:31:48.711Z,84.60
2018-03-24T09:34:16.233Z,84.80
2018-03-24T09:36:43.704Z,84.40
2018-03-24T09:39:11.207Z,83.30
2018-03-24T09:41:38.700Z,82.40
2018-03-24T09:44:06.163Z,81.90
2018-03-24T09:46:33.674Z,83.70
2018-03-24T09:49:01.954Z,81.20
2018-03-24T09:51:30.959Z,80.70
2018-03-24T09:53:59.197Z,79.20
2018-03-24T09:56:26.710Z,79.10
2018-03-24T09:58:54.955Z,75.40
2018-03-24T10:01:22.481Z,75.30
2018-03-24T10:03:50.778Z,71.40
2018-03-24T10:06:18.331Z,71.40
2018-03-24T10:08:45.748Z,70.90
2018-03-24T10:11:13.276Z,71.50
2018-03-24T10:13:41.543Z,66.00
2018-03-24T10:16:09.805Z,62.90
2018-03-24T10:18:37.301Z,62.90
2018-03-24T10:24:32.052Z,60.70
2018-03-24T10:26:59.516Z,60.10
2018-03-24T10:29:29.272Z,59.60
2018-03-24T10:31:56.727Z,58.10
2018-03-24T10:34:24.213Z,55.60
2018-03-24T10:36:51.721Z,55.30
2018-03-24T10:39:19.292Z,56.10
2018-03-24T10:41:46.770Z,57.30
2018-03-24T10:44:15.063Z,55.40
2018-03-24T10:46:42.590Z,55.40
2018-03-24T10:49:10.128Z,55.20
2018-03-24T10:51:37.635Z,58.00
2018-03-24T10:54:05.890Z,55.70
2018-03-24T10:56:33.370Z,55.70
2018-03-24T10:59:00.912Z,53.60
2018-03-24T11:01:29.200Z,53.20
2018-03-24T11:03:57.509Z,52.00
2018-03-24T11:06:25.009Z,52.00
2018-03-24T11:08:52.517Z,53.20
2018-03-24T11:11:20.030Z,52.90
2018-03-24T11:13:47.552Z,53.00
2018-03-24T11:16:15.059Z,52.70
2018-03-24T11:18:42.692Z,53.50
2018-03-24T11:21:10.179Z,52.00
2018-03-24T11:23:38.426Z,51.00
2018-03-24T11:26:05.988Z,51.00
2018-03-24T11:28:33.505Z,51.00
2018-03-24T11:31:01.027Z,50.40
2018-03-24T11:33:28.564Z,49.20
2018-03-24T11:35:56.116Z,49.10
2018-03-24T11:38:23.615Z,48.90
2018-03-24T11:40:51.106Z,48.70
2018-03-24T11:43:18.606Z,50.20
2018-03-24T11:45:46.291Z,48.10
2018-03-24T11:48:14.595Z,46.50
2018-03-24T11:50:45.495Z,46.50
2018-03-24T11:53:13.023Z,46.70
2018-03-24T11:55:40.526Z,47.80
2018-03-24T11:58:08.787Z,47.70
2018-03-24T12:00:36.290Z,47.60
2018-03-24T12:03:03.799Z,46.80
2018-03-24T12:05:31.306Z,46.80
2018-03-24T12:07:58.854Z,46.60
2018-03-24T12:10:26.312Z,46.70
2018-03-24T12:12:53.807Z,47.10
2018-03-24T12:15:21.307Z,46.90
2018-03-24T12:17:49.586Z,46.40
2018-03-24T12:20:17.829Z,46.70
2018-03-24T12:22:45.356Z,46.60
2018-03-24T12:25:12.844Z,46.80
2018-03-24T12:27:41.494Z,44.80
2018-03-24T12:30:09.011Z,45.40
2018-03-24T12:32:38.018Z,39.80
2018-03-24T12:35:06.290Z,30.70
2018-03-24T12:37:34.521Z,24.80
2018-03-24T12:40:02.023Z,24.70
2018-03-24T12:42:30.291Z,17.00
2018-03-24T12:44:57.763Z,16.90
2018-03-24T12:47:25.995Z,14.50
2018-03-24T12:49:53.491Z,14.50
2018-03-24T12:52:21.085Z,12.70
2018-03-24T12:54:48.569Z,13.20
2018-03-24T12:57:17.200Z,11.20
2018-03-24T12:59:45.605Z,11.40
2018-03-24T13:02:12.962Z,11.40
2018-03-24T13:04:40.421Z,10.80
2018-03-24T13:07:07.932Z,11.20
2018-03-24T13:09:35.479Z,11.30
2018-03-24T13:12:03.035Z,10.20
2018-03-24T13:14:30.507Z,10.50
2018-03-24T13:16:58.022Z,9.80
2018-03-24T13:19:25.491Z,10.00
2018-03-24T13:21:52.968Z,9.60
2018-03-24T13:24:21.259Z,9.90
2018-03-24T13:26:48.734Z,9.90
2018-03-24T13:29:16.977Z,9.90
2018-03-24T13:31:44.453Z,9.30
2018-03-24T13:34:13.446Z,8.90
2018-03-24T13:36:40.921Z,8.90
2018-03-24T13:39:09.227Z,9.00
2018-03-24T13:41:36.737Z,8.90
2018-03-24T13:44:04.195Z,8.90
2018-03-24T13:46:31.670Z,8.70
2018-03-24T13:48:59.981Z,8.60
2018-03-24T13:51:27.470Z,8.60
2018-03-24T13:53:54.939Z,8.10
2018-03-24T13:56:23.273Z,8.10
2018-03-24T13:58:50.778Z,8.50
2018-03-24T14:01:19.060Z,8.60
2018-03-24T14:03:46.523Z,8.60
2018-03-24T14:06:14.811Z,8.70
2018-03-24T14:08:43.040Z,8.70
2018-03-24T14:11:11.349Z,8.40
2018-03-24T14:13:39.589Z,8.30
2018-03-24T14:16:07.044Z,8.20
2018-03-24T14:18:34.545Z,8.30
2018-03-24T14:21:02.006Z,8.00
2018-03-24T14:23:30.264Z,8.10
2018-03-24T14:25:57.837Z,8.00
2018-03-24T14:28:26.109Z,7.40
2018-03-24T14:30:53.566Z,7.70
2018-03-24T14:33:21.098Z,7.80
2018-03-24T14:35:48.642Z,7.50
2018-03-24T14:38:16.136Z,7.80
2018-03-24T14:40:43.621Z,8.30
2018-03-24T14:43:11.886Z,8.20
2018-03-24T14:45:39.371Z,8.20
2018-03-24T14:48:06.924Z,8.40
2018-03-24T14:50:35.167Z,8.10
2018-03-24T14:53:02.675Z,8.00
2018-03-24T14:55:30.151Z,7.90
2018-03-24T14:57:57.697Z,8.00
2018-03-24T15:00:25.176Z,8.00
2018-03-24T15:02:52.683Z,7.80
2018-03-24T15:05:20.985Z,9.40
2018-03-24T15:07:48.464Z,8.80
2018-03-24T15:10:15.952Z,8.80
2018-03-24T15:12:43.422Z,8.80
2018-03-24T15:15:10.989Z,8.90
2018-03-24T15:17:39.257Z,8.60
2018-03-24T15:20:07.532Z,8.40
2018-03-24T15:22:34.991Z,8.40
2018-03-24T15:25:03.263Z,9.70
2018-03-24T15:27:30.805Z,9.10
2018-03-24T15:30:10.249Z,9.30
2018-03-24T15:32:49.445Z,9.40
2018-03-24T15:35:33.788Z,9.10
2018-03-24T15:38:01.258Z,9.10
2018-03-24T15:40:28.757Z,9.70
2018-03-24T15:42:56.996Z,9.70
2018-03-24T15:45:24.512Z,9.60
2018-03-24T15:47:52.755Z,10.20
2018-03-24T15:50:20.293Z,10.20
2018-03-24T15:52:47.774Z,10.40
2018-03-24T15:55:15.286Z,10.30
2018-03-24T15:57:42.774Z,10.10
2018-03-24T16:00:10.306Z,10.20
2018-03-24T16:02:37.780Z,10.00
2018-03-24T16:05:05.276Z,10.10
2018-03-24T16:07:32.878Z,10.30
2018-03-24T16:10:00.388Z,10.40
2018-03-24T16:12:27.883Z,11.00
2018-03-24T16:14:56.120Z,11.50
2018-03-24T16:17:23.741Z,11.50
2018-03-24T16:19:51.222Z,12.80
2018-03-24T16:22:18.726Z,13.70
2018-03-24T16:24:47.012Z,14.80
2018-03-24T16:27:15.294Z,15.10
2018-03-24T16:29:43.524Z,15.90
2018-03-24T16:32:11.083Z,15.90
2018-03-24T16:34:38.571Z,16.90
2018-03-24T16:37:06.900Z,19.10
2018-03-24T16:39:34.417Z,19.00
2018-03-24T16:42:03.084Z,21.80
2018-03-24T16:44:30.574Z,21.70
2018-03-24T16:46:58.048Z,25.30
2018-03-24T16:49:25.550Z,27.60
2018-03-24T16:51:53.047Z,30.00
2018-03-24T16:54:20.550Z,32.20
2018-03-24T16:56:48.137Z,34.60
2018-03-24T16:59:16.410Z,40.00
2018-03-24T17:01:43.889Z,40.00
2018-03-24T17:04:12.188Z,44.20
2018-03-24T17:06:39.670Z,44.10
2018-03-24T17:09:07.171Z,45.50
2018-03-24T17:11:35.406Z,47.90
2018-03-24T17:14:02.904Z,47.90
2018-03-24T17:16:31.247Z,50.20
2018-03-24T17:18:58.705Z,50.10
2018-03-24T17:21:26.219Z,51.50
2018-03-24T17:23:53.715Z,52.40
2018-03-24T17:26:21.270Z,53.00
2018-03-24T17:28:48.744Z,53.60
2018-03-24T17:31:16.244Z,54.40
2018-03-24T17:33:43.830Z,55.60
2018-03-24T17:36:11.350Z,56.60
2018-03-24T17:38:39.595Z,58.60
2018-03-24T17:41:07.123Z,58.60
2018-03-24T17:43:34.618Z,60.00
2018-03-24T17:46:02.134Z,61.20
2018-03-24T17:48:29.659Z,62.80
2018-03-24T17:50:57.130Z,63.20
2018-03-24T17:53:25.390Z,64.70
2018-03-24T17:55:53.650Z,66.00
2018-03-24T17:58:21.165Z,66.00
2018-03-24T18:00:48.654Z,66.50
2018-03-24T18:03:16.161Z,67.10
2018-03-24T18:05:43.655Z,67.50
2018-03-24T18:08:11.158Z,68.40
2018-03-24T18:10:38.634Z,69.40
2018-03-24T18:13:06.126Z,70.20
2018-03-24T18:15:33.594Z,69.90
2018-03-24T18:18:01.134Z,70.90
2018-03-24T18:20:28.638Z,71.90
2018-03-24T18:22:56.187Z,71.60
2018-03-24T18:25:23.665Z,71.50
2018-03-24T18:27:51.223Z,72.00
2018-03-24T18:30:18.709Z,71.90
2018-03-24T18:32:46.948Z,73.10
2018-03-24T18:35:14.461Z,73.00
2018-03-24T18:37:41.924Z,73.70
2018-03-24T18:40:09.420Z,74.00
2018-03-24T18:42:37.048Z,73.70
2018-03-24T18:45:04.595Z,74.60
2018-03-24T18:47:32.080Z,75.30
2018-03-24T18:49:59.586Z,76.10
2018-03-24T18:52:27.897Z,77.20
2018-03-24T18:54:55.400Z,77.10
2018-03-24T18:57:22.921Z,78.00
2018-03-24T18:59:50.425Z,78.30
2018-03-24T19:02:18.790Z,79.60
2018-03-24T19:04:46.264Z,79.30
2018-03-24T19:07:13.784Z,79.50
2018-03-24T19:09:41.375Z,79.40
2018-03-24T19:12:08.896Z,80.00
2018-03-24T19:14:36.382Z,80.50
2018-03-24T19:17:03.916Z,80.40
2018-03-24T19:19:31.420Z,80.80
2018-03-24T19:21:58.955Z,81.40
2018-03-24T19:24:26.472Z,81.40
2018-03-24T19:26:53.942Z,82.00
2018-03-24T19:29:21.493Z,82.00
2018-03-24T19:31:49.010Z,82.20
2018-03-24T19:34:17.295Z,83.30
2018-03-24T19:36:45.581Z,83.20
2018-03-24T19:39:13.886Z,83.40
2018-03-24T19:41:41.384Z,83.40
2018-03-24T19:44:08.869Z,83.70
2018-03-24T19:46:37.148Z,84.00
2018-03-24T19:49:05.493Z,84.30
2018-03-24T19:51:32.974Z,84.30
2018-03-24T19:54:01.267Z,84.70
2018-03-24T19:56:29.498Z,84.70
2018-03-24T19:58:57.017Z,84.70
2018-03-24T20:01:24.527Z,85.10
2018-03-24T20:03:52.059Z,85.50
2018-03-24T20:06:19.574Z,85.90
2018-03-24T20:08:47.201Z,86.20
2018-03-24T20:11:14.655Z,86.20
2018-03-24T20:13:42.194Z,86.60
2018-03-24T20:16:09.678Z,86.80
2018-03-24T20:18:37.197Z,86.90
2018-03-24T20:21:04.659Z,87.40
2018-03-24T20:23:32.206Z,87.30
2018-03-24T20:25:59.708Z,87.60
2018-03-24T20:28:27.198Z,87.70
2018-03-24T20:30:55.528Z,88.10
2018-03-24T20:33:22.965Z,88.10
2018-03-24T20:35:50.495Z,88.30
2018-03-24T20:38:18.948Z,89.10
2018-03-24T20:40:46.440Z,89.10
2018-03-24T20:43:13.937Z,89.30
2018-03-24T20:45:41.796Z,89.30
2018-03-24T20:48:09.304Z,90.10
2018-03-24T20:50:37.667Z,90.10
2018-03-24T20:53:05.200Z,90.10
2018-03-24T20:55:32.722Z,90.20
2018-03-24T20:58:00.235Z,90.20
2018-03-24T21:00:27.719Z,90.20
2018-03-24T21:02:55.977Z,90.50
2018-03-24T21:05:23.468Z,90.40
2018-03-24T21:07:51.792Z,90.60
2018-03-24T21:10:19.262Z,90.60
2018-03-24T21:12:46.758Z,90.60
2018-03-24T21:15:15.074Z,90.60
2018-03-24T21:17:42.590Z,90.60
2018-03-24T21:20:10.835Z,90.70
2018-03-24T21:22:38.385Z,90.60
2018-03-24T21:25:05.886Z,90.70
2018-03-24T21:27:34.118Z,90.90
2018-03-24T21:30:01.650Z,90.80
2018-03-24T21:32:29.127Z,90.80
2018-03-24T21:34:56.625Z,90.80
2018-03-24T21:37:24.866Z,90.90
2018-03-24T21:39:52.386Z,90.90
2018-03-24T21:42:19.883Z,90.90
2018-03-24T21:44:47.396Z,90.80
2018-03-24T21:47:14.864Z,90.90
2018-03-24T21:49:42.371Z,90.90
2018-03-24T21:52:09.842Z,91.00
2018-03-24T21:54:38.251Z,91.80
2018-03-24T21:57:05.733Z,91.40
2018-03-24T21:59:33.248Z,91.40
2018-03-24T22:02:01.560Z,91.30
2018-03-24T22:04:29.163Z,91.30
2018-03-24T22:06:56.640Z,91.30
2018-03-24T22:09:24.916Z,91.50
2018-03-24T22:11:52.427Z,91.50
2018-03-24T22:14:20.026Z,91.50
2018-03-24T22:16:47.528Z,91.50
2018-03-24T22:19:15.018Z,91.60
2018-03-24T22:21:42.545Z,91.60
2018-03-24T22:24:10.055Z,91.50
2018-03-24T22:26:37.540Z,91.60
2018-03-24T22:29:05.781Z,91.60
2018-03-24T22:31:33.338Z,91.60
2018-03-24T22:34:00.822Z,91.60
2018-03-24T22:36:29.086Z,91.60
2018-03-24T22:38:56.548Z,91.50
2018-03-24T22:41:24.074Z,91.60
2018-03-24T22:43:51.546Z,91.70
2018-03-24T22:46:19.028Z,91.70
2018-03-24T22:48:46.556Z,91.80
2018-03-24T22:51:14.026Z,91.80
2018-03-24T22:53:41.546Z,91.70
2018-03-24T22:56:09.027Z,91.70
2018-03-24T22:58:36.517Z,91.80
2018-03-24T23:01:04.867Z,92.20
2018-03-24T23:03:32.360Z,92.20
2018-03-24T23:06:00.595Z,92.60
2018-03-24T23:08:28.100Z,92.60
2018-03-24T23:10:56.372Z,92.80
2018-03-24T23:13:24.663Z,92.80
2018-03-24T23:15:52.141Z,92.80
2018-03-24T23:18:19.647Z,92.80
2018-03-24T23:20:47.126Z,92.80
2018-03-24T23:23:15.425Z,93.00
2018-03-24T23:25:42.884Z,93.00
2018-03-24T23:28:10.578Z,92.80
2018-03-24T23:30:38.079Z,92.70
2018-03-24T23:33:06.319Z,93.10
2018-03-24T23:35:33.839Z,93.00
2018-03-24T23:38:01.325Z,93.10
2018-03-24T23:40:28.931Z,93.10
2018-03-24T23:42:57.208Z,93.50
2018-03-24T23:45:25.467Z,93.80
2018-03-24T23:47:52.960Z,93.80
2018-03-24T23:50:21.800Z,93.90
2018-03-24T23:52:49.291Z,94.00
2018-03-24T23:55:17.549Z,93.70
2018-03-24T23:57:46.515Z,93.60
